Date,TemperatureHighF,TemperatureAvgF,TemperatureLowF,DewpointHighF,DewpointAvgF,DewpointLowF,HumidityHigh,HumidityAvg,HumidityLow,PressureMaxIn,PressureMinIn,WindSpeedMaxMPH,WindSpeedAvgMPH,GustSpeedMaxMPH,PrecipitationSumIn
2013-7-1,73.0,66.4,59.7,38.7,34.8,28.8,43,31,22,30.06,29.85,4,2,8,0.00
2013-7-2,82.2,73.0,61.2,33.1,23.6,13.1,31,17,8,30.02,29.75,4,2,7,0.00
2013-7-3,80.2,69.6,61.0,37.8,26.4,13.1,32,21,8,29.93,29.59,7,2,12,0.00
2013-7-4,85.1,73.8,60.1,49.3,31.9,19.4,52,24,9,29.89,29.46,8,2,15,0.00
2013-7-5,88.7,75.6,63.3,42.2,34.3,20.8,43,25,9,29.75,29.41,8,3,14,0.00
2013-7-6,88.2,74.1,63.3,42.4,36.1,8.5,44,27,5,29.83,29.44,12,3,20,0.00
2013-7-7,88.5,72.2,57.7,56.6,40.4,26.3,78,37,11,30.00,29.49,10,3,19,0.07
2013-7-8,90.5,72.8,56.1,50.3,20.8,-99.9,73,36,1,30.05,29.60,8,3,16,0.00
2013-7-9,85.1,73.9,62.8,34.3,25.8,11.9,32,18,9,30.02,29.75,5,2,10,0.00
2013-7-10,83.7,71.5,64.9,22.2,14.8,9.1,17,11,9,29.94,29.73,6,2,11,0.00
2013-7-11,89.6,74.4,59.9,58.5,38.7,21.7,94,36,9,29.97,29.48,10,3,20,0.22
2013-7-18,65.3,63.2,60.8,55.4,52.7,50.0,82,69,58,30.03,29.98,10,6,19,0.69
2013-7-19,87.4,67.3,54.9,56.4,48.9,28.2,86,58,12,30.09,29.53,8,2,15,0.00
2013-7-20,86.7,74.4,63.0,50.4,44.1,21.1,57,37,9,29.89,29.49,6,3,12,0.00
2013-7-21,87.4,84.1,73.6,41.9,26.9,17.9,32,14,10,29.68,29.54,4,3,18,7.42
2013-7-22,87.6,75.1,64.4,41.1,33.9,21.8,39,25,9,29.86,29.59,6,2,12,7.42
2013-7-23,80.1,71.2,63.7,34.4,21.6,10.9,28,16,9,29.88,29.71,3,2,5,0.00
2013-7-25,87.8,74.9,58.5,47.3,37.1,18.3,60,30,8,30.02,29.61,8,3,14,0.00
2013-7-26,86.4,86.2,86.0,27.5,26.5,25.6,12,12,11,29.76,29.75,7,6,9,0.00
2013-7-28,63.5,62.7,61.5,55.1,53.4,50.7,78,72,63,29.83,29.78,3,1,4,0.00
2013-7-30,71.4,67.4,64.4,48.0,40.5,34.2,55,38,31,30.07,30.00,4,2,6,0.00
2013-7-31,87.8,73.1,61.0,46.1,36.0,18.9,53,29,8,30.14,29.72,6,3,11,0.00